Terminal Aerodrome Forecast
Issued by NWS

Current Version | Previous Version | Text Only | Print | Product List | Glossary Off
Versions: 1 2 3 4 5 6 7 8 9 10 11 12 13 14 15 16 17 18 19 20 21 22 23 24 25

291
FTUS41 KRLX 110538
TAFCKB
TAF
KCKB 110538Z 1106/1206 27012G21KT 5SM -SN SCT018 BKN030 OVC070
     FM110800 28010KT 5SM -SN OVC022
     FM110900 26009KT P6SM OVC025
     FM111700 28010G15KT P6SM BKN035
     FM112200 28008KT P6SM SCT040=

USA.gov is the U.S. government's official web portal to all federal, state and local government web resources and services.